createdAt,value
2023-03-26T00:01:23.603Z,9.70
2023-03-26T00:03:54.590Z,9.60
2023-03-26T00:06:25.003Z,9.60
2023-03-26T00:08:57.174Z,9.70
2023-03-26T00:11:28.756Z,9.70
2023-03-26T00:13:58.117Z,9.70
2023-03-26T00:16:27.938Z,9.70
2023-03-26T00:18:57.702Z,9.70
2023-03-26T00:21:27.958Z,9.80
2023-03-26T00:23:56.712Z,9.80
2023-03-26T00:26:26.079Z,9.80
2023-03-26T00:28:54.719Z,9.60
2023-03-26T00:31:23.081Z,9.30
2023-03-26T00:33:55.648Z,9.10
2023-03-26T00:36:26.808Z,9.00
2023-03-26T00:38:55.770Z,9.00
2023-03-26T00:41:30.867Z,9.00
2023-03-26T00:44:00.770Z,9.00
2023-03-26T00:46:31.301Z,9.00
2023-03-26T00:49:01.724Z,9.00
2023-03-26T00:51:30.766Z,9.00
2023-03-26T00:53:59.429Z,9.00
2023-03-26T00:56:28.799Z,9.00
2023-03-26T00:58:57.756Z,9.10
2023-03-26T01:01:29.024Z,9.00
2023-03-26T01:04:07.361Z,9.10
2023-03-26T01:06:42.032Z,9.00
2023-03-26T01:09:16.207Z,9.00
2023-03-26T01:11:46.493Z,8.90
2023-03-26T01:14:17.584Z,8.80
2023-03-26T01:16:50.108Z,8.70
2023-03-26T01:19:24.952Z,8.60
2023-03-26T01:21:53.509Z,8.50
2023-03-26T01:24:23.151Z,8.50
2023-03-26T01:27:02.649Z,8.40
2023-03-26T01:29:37.564Z,8.40
2023-03-26T01:32:18.181Z,8.40
2023-03-26T01:34:57.307Z,8.40
2023-03-26T01:37:32.966Z,8.30
2023-03-26T01:40:07.007Z,8.30
2023-03-26T01:42:38.529Z,8.20
2023-03-26T01:45:11.250Z,8.20
2023-03-26T01:47:41.063Z,8.20
2023-03-26T01:50:11.174Z,8.20
2023-03-26T01:52:39.772Z,8.30
2023-03-26T01:55:11.856Z,8.30
2023-03-26T01:57:51.706Z,8.20
2023-03-26T02:00:26.608Z,8.30
2023-03-26T02:03:05.905Z,8.20
2023-03-26T02:05:37.885Z,8.20
2023-03-26T02:08:12.937Z,8.20
2023-03-26T02:10:45.258Z,8.20
2023-03-26T02:13:13.938Z,8.40
2023-03-26T02:15:42.358Z,8.40
2023-03-26T02:18:10.947Z,8.50
2023-03-26T02:20:38.980Z,8.60
2023-03-26T02:23:07.798Z,8.60
2023-03-26T02:25:39.811Z,8.70
2023-03-26T02:28:09.172Z,8.70
2023-03-26T02:30:37.842Z,8.70
2023-03-26T02:33:05.833Z,8.80
2023-03-26T02:35:33.892Z,8.90
2023-03-26T02:38:02.065Z,8.90
2023-03-26T02:40:30.004Z,9.00
2023-03-26T02:42:58.761Z,9.10
2023-03-26T02:45:28.257Z,9.00
2023-03-26T02:47:56.313Z,9.10
2023-03-26T02:50:24.319Z,9.00
2023-03-26T02:52:52.298Z,9.00
2023-03-26T02:55:20.281Z,9.00
2023-03-26T02:57:48.226Z,8.90
2023-03-26T03:00:17.157Z,8.90
2023-03-26T03:02:48.172Z,8.80
2023-03-26T03:05:18.127Z,8.80
2023-03-26T03:07:46.722Z,8.90
2023-03-26T03:10:15.674Z,8.90
2023-03-26T03:12:44.055Z,8.80
2023-03-26T03:15:13.198Z,8.90
2023-03-26T03:17:41.633Z,8.80
2023-03-26T03:20:12.277Z,8.80
2023-03-26T03:22:40.917Z,8.90
2023-03-26T03:25:14.246Z,8.90
2023-03-26T03:27:42.865Z,8.80
2023-03-26T03:30:13.194Z,8.80
2023-03-26T03:32:41.695Z,8.80
2023-03-26T03:35:11.376Z,8.70
2023-03-26T03:37:39.329Z,8.60
2023-03-26T03:40:10.732Z,8.60
2023-03-26T03:42:38.830Z,8.50
2023-03-26T03:45:07.861Z,8.40
2023-03-26T03:47:35.966Z,8.40
2023-03-26T03:50:04.286Z,8.40
2023-03-26T03:52:33.809Z,8.40
2023-03-26T03:55:01.836Z,8.40
2023-03-26T03:57:31.989Z,8.40
2023-03-26T04:00:00.023Z,8.40
2023-03-26T04:02:30.317Z,8.40
2023-03-26T04:04:58.794Z,8.50
2023-03-26T04:07:27.626Z,8.60
2023-03-26T04:09:57.001Z,8.60
2023-03-26T04:12:24.945Z,8.70
2023-03-26T04:14:52.879Z,8.70
2023-03-26T04:17:21.923Z,8.80
2023-03-26T04:19:50.360Z,8.80
2023-03-26T04:22:19.400Z,8.80
2023-03-26T04:24:48.817Z,8.80
2023-03-26T04:27:21.303Z,8.80
2023-03-26T04:29:50.760Z,8.80
2023-03-26T04:32:26.641Z,8.80
2023-03-26T04:34:54.949Z,8.80
2023-03-26T04:37:28.556Z,8.80
2023-03-26T04:39:56.526Z,8.80
2023-03-26T04:42:25.872Z,8.80
2023-03-26T04:44:53.818Z,8.80
2023-03-26T04:47:21.830Z,8.80
2023-03-26T04:49:49.834Z,8.80
2023-03-26T04:52:18.187Z,8.80
2023-03-26T04:54:47.767Z,8.90
2023-03-26T04:57:20.149Z,8.90
2023-03-26T04:59:50.204Z,8.90
2023-03-26T05:02:18.941Z,8.90
2023-03-26T05:04:47.078Z,8.90
2023-03-26T05:07:18.867Z,8.90
2023-03-26T05:09:46.813Z,8.80
2023-03-26T05:12:14.779Z,8.70
2023-03-26T05:14:42.737Z,8.70
2023-03-26T05:17:18.819Z,8.70
2023-03-26T05:19:47.694Z,8.60
2023-03-26T05:22:15.672Z,8.60
2023-03-26T05:24:43.612Z,8.70
2023-03-26T05:27:16.926Z,8.70
2023-03-26T05:29:44.845Z,8.80
2023-03-26T05:32:14.158Z,8.80
2023-03-26T05:34:42.616Z,9.00
2023-03-26T05:37:10.628Z,9.10
2023-03-26T05:39:38.674Z,9.10
2023-03-26T05:42:07.843Z,9.20
2023-03-26T05:44:35.838Z,9.20
2023-03-26T05:47:04.006Z,9.40
2023-03-26T05:49:33.341Z,9.40
2023-03-26T05:52:01.315Z,9.40
2023-03-26T05:54:29.439Z,9.60
2023-03-26T05:56:57.451Z,9.60
2023-03-26T05:59:25.636Z,9.70
2023-03-26T06:01:54.595Z,9.70
2023-03-26T06:04:22.648Z,9.80
2023-03-26T06:06:52.691Z,9.80
2023-03-26T06:09:20.664Z,9.90
2023-03-26T06:11:48.622Z,9.90
2023-03-26T06:14:17.022Z,9.90
2023-03-26T06:16:45.044Z,9.90
2023-03-26T06:19:12.995Z,10.00
2023-03-26T06:21:41.089Z,10.00
2023-03-26T06:24:10.693Z,10.00
2023-03-26T06:26:38.692Z,9.90
2023-03-26T06:29:07.292Z,9.80
2023-03-26T06:31:35.513Z,9.90
2023-03-26T06:34:03.590Z,10.20
2023-03-26T06:36:31.550Z,10.40
2023-03-26T06:39:00.933Z,10.50
2023-03-26T06:41:37.335Z,10.60
2023-03-26T06:44:05.297Z,10.70
2023-03-26T06:46:33.307Z,10.70
2023-03-26T06:49:01.315Z,10.70
2023-03-26T06:51:29.342Z,10.80
2023-03-26T06:53:57.285Z,10.80
2023-03-26T06:56:25.301Z,10.80
2023-03-26T06:58:54.620Z,10.70
2023-03-26T07:01:22.616Z,10.60
2023-03-26T07:03:50.707Z,10.60
2023-03-26T07:06:18.697Z,10.60
2023-03-26T07:08:46.922Z,10.60
2023-03-26T07:11:16.692Z,10.70
2023-03-26T07:13:45.915Z,10.80
2023-03-26T07:16:15.485Z,10.80
2023-03-26T07:18:43.492Z,10.90
2023-03-26T07:21:12.739Z,11.00
2023-03-26T07:23:41.230Z,11.00
2023-03-26T07:26:26.462Z,10.90
2023-03-26T07:29:04.494Z,10.70
2023-03-26T07:31:43.330Z,10.70
2023-03-26T07:34:22.798Z,10.90
2023-03-26T07:36:58.000Z,11.10
2023-03-26T07:39:39.244Z,11.30
2023-03-26T07:42:18.223Z,11.40
2023-03-26T07:44:52.387Z,11.50
2023-03-26T07:47:28.641Z,11.60
2023-03-26T07:49:58.210Z,11.70
2023-03-26T07:52:26.986Z,11.70
2023-03-26T07:54:55.550Z,12.00
2023-03-26T07:57:37.004Z,12.10
2023-03-26T08:00:12.186Z,12.10
2023-03-26T08:03:03.421Z,12.10
2023-03-26T08:05:35.416Z,12.00
2023-03-26T08:08:17.464Z,12.60
2023-03-26T08:11:01.141Z,12.90
2023-03-26T08:13:39.181Z,13.30
2023-03-26T08:16:13.627Z,13.30
2023-03-26T08:18:51.791Z,13.20
2023-03-26T08:21:25.515Z,13.10
2023-03-26T08:24:03.815Z,13.20
2023-03-26T08:26:39.157Z,13.20
2023-03-26T08:29:18.258Z,13.00
2023-03-26T08:31:49.008Z,13.10
2023-03-26T08:34:18.398Z,13.20
2023-03-26T08:36:46.777Z,13.40
2023-03-26T08:39:14.736Z,13.40
2023-03-26T08:42:30.667Z,13.50
2023-03-26T08:45:30.419Z,13.40
2023-03-26T08:48:32.421Z,13.20
2023-03-26T08:51:53.580Z,13.40
2023-03-26T08:54:53.915Z,13.60
2023-03-26T08:57:51.616Z,14.20
2023-03-26T09:00:36.690Z,14.50
2023-03-26T09:03:24.671Z,14.40
2023-03-26T09:06:09.857Z,14.60
2023-03-26T09:09:18.784Z,14.70
2023-03-26T09:12:26.102Z,14.80
2023-03-26T09:15:36.774Z,14.70
2023-03-26T09:18:21.720Z,14.30
2023-03-26T09:21:31.246Z,14.20
2023-03-26T09:24:28.823Z,14.10
2023-03-26T09:27:11.035Z,13.80
2023-03-26T09:30:15.655Z,13.60
2023-03-26T09:33:19.718Z,13.70
2023-03-26T09:35:57.710Z,15.10
2023-03-26T09:38:43.779Z,16.20
2023-03-26T09:41:17.867Z,16.10
2023-03-26T09:44:14.550Z,15.60
2023-03-26T09:46:51.651Z,15.00
2023-03-26T09:49:39.715Z,14.80
2023-03-26T09:52:32.777Z,14.50
2023-03-26T09:55:22.638Z,14.10
2023-03-26T09:58:08.918Z,13.80
2023-03-26T10:00:47.972Z,13.50
2023-03-26T10:03:27.050Z,13.30
2023-03-26T10:06:06.824Z,13.00
2023-03-26T10:08:56.077Z,12.90
2023-03-26T10:11:33.858Z,12.90
2023-03-26T10:14:08.960Z,13.00
2023-03-26T10:16:52.200Z,13.00
2023-03-26T10:19:53.164Z,13.10
2023-03-26T10:22:33.357Z,12.90
2023-03-26T10:25:23.265Z,12.60
2023-03-26T10:28:00.113Z,12.60
2023-03-26T10:30:45.136Z,13.10
2023-03-26T10:33:26.530Z,13.30
2023-03-26T10:36:09.727Z,13.60
2023-03-26T10:38:53.523Z,13.50
2023-03-26T10:41:30.272Z,13.70
2023-03-26T10:44:16.953Z,14.30
2023-03-26T10:47:11.302Z,14.60
2023-03-26T10:50:23.178Z,14.60
2023-03-26T10:52:55.444Z,14.70
2023-03-26T10:55:29.962Z,15.10
2023-03-26T10:58:02.974Z,15.40
2023-03-26T11:00:31.642Z,15.40
2023-03-26T11:03:18.248Z,15.40
2023-03-26T11:05:54.074Z,15.30
2023-03-26T11:08:31.944Z,15.40
2023-03-26T11:11:14.628Z,15.30
2023-03-26T11:13:48.652Z,15.10
2023-03-26T11:16:25.275Z,14.90
2023-03-26T11:19:00.404Z,14.90
2023-03-26T11:21:34.762Z,15.10
2023-03-26T11:24:25.523Z,15.30
2023-03-26T11:26:57.855Z,15.00
2023-03-26T11:29:52.771Z,15.00
2023-03-26T11:32:25.124Z,14.90
2023-03-26T11:35:00.073Z,14.70
2023-03-26T11:37:34.286Z,14.60
2023-03-26T11:40:07.179Z,14.60
2023-03-26T11:42:35.197Z,14.50
2023-03-26T11:45:07.572Z,14.50
2023-03-26T11:47:39.405Z,14.50
2023-03-26T11:50:11.815Z,14.50
2023-03-26T11:52:41.455Z,14.40
2023-03-26T11:55:12.929Z,14.30
2023-03-26T11:57:46.291Z,14.20
2023-03-26T12:00:19.447Z,14.10
2023-03-26T12:02:49.170Z,14.10
2023-03-26T12:05:20.835Z,14.10
2023-03-26T12:07:55.900Z,13.90
2023-03-26T12:10:27.665Z,14.00
2023-03-26T12:12:59.142Z,14.40
2023-03-26T12:15:28.343Z,14.80
2023-03-26T12:17:58.906Z,14.90
2023-03-26T12:20:36.056Z,14.90
2023-03-26T12:23:08.287Z,14.60
2023-03-26T12:25:38.614Z,14.70
2023-03-26T12:28:18.115Z,14.70
2023-03-26T12:30:55.003Z,14.50
2023-03-26T12:33:28.086Z,14.40
2023-03-26T12:36:00.552Z,14.40
2023-03-26T12:38:34.716Z,14.50
2023-03-26T12:41:07.974Z,14.50
2023-03-26T12:44:53.965Z,14.70
2023-03-26T12:47:56.241Z,14.80
2023-03-26T12:49:21.080Z,14.80
2023-03-26T12:51:52.857Z,14.70
2023-03-26T12:54:44.801Z,14.80
2023-03-26T12:57:21.325Z,15.00
2023-03-26T13:00:06.592Z,15.00
2023-03-26T13:03:15.004Z,15.00
2023-03-26T13:06:12.659Z,14.70
2023-03-26T13:09:25.373Z,14.70
2023-03-26T13:12:09.113Z,14.70
2023-03-26T13:14:52.131Z,14.50
2023-03-26T13:17:27.923Z,14.40
2023-03-26T13:20:06.722Z,14.30
2023-03-26T13:22:42.491Z,14.30
2023-03-26T13:25:23.744Z,14.30
2023-03-26T13:28:07.157Z,14.60
2023-03-26T13:30:42.669Z,14.70
2023-03-26T13:33:35.904Z,14.50
2023-03-26T13:36:23.059Z,14.50
2023-03-26T13:39:03.482Z,14.40
2023-03-26T13:41:42.755Z,14.90
2023-03-26T13:44:23.069Z,14.90
2023-03-26T13:46:56.169Z,14.70
2023-03-26T13:49:37.233Z,14.60
2023-03-26T13:52:11.164Z,14.60
2023-03-26T13:54:44.813Z,14.70
2023-03-26T13:57:20.280Z,14.60
2023-03-26T13:59:54.352Z,14.40
2023-03-26T14:02:29.994Z,14.50
2023-03-26T14:05:04.922Z,14.40
2023-03-26T14:07:40.203Z,14.30
2023-03-26T14:10:13.168Z,14.30
2023-03-26T14:12:55.084Z,14.10
2023-03-26T14:15:28.610Z,14.00
2023-03-26T14:18:06.094Z,14.00
2023-03-26T14:20:56.389Z,14.00
2023-03-26T14:23:39.982Z,14.30
2023-03-26T14:26:25.262Z,14.50
2023-03-26T14:29:21.553Z,14.60
2023-03-26T14:31:59.453Z,14.50
2023-03-26T14:34:40.187Z,14.30
2023-03-26T14:37:28.491Z,14.20
2023-03-26T14:40:28.997Z,14.10
2023-03-26T14:43:13.732Z,14.10
2023-03-26T14:46:00.706Z,14.00
2023-03-26T14:49:11.087Z,13.90
2023-03-26T14:52:05.184Z,13.90
2023-03-26T14:54:38.244Z,13.80
2023-03-26T14:57:52.380Z,14.00
2023-03-26T15:01:03.878Z,13.90
2023-03-26T15:04:14.212Z,13.80
2023-03-26T15:07:12.854Z,13.70
2023-03-26T15:10:17.844Z,13.70
2023-03-26T15:13:01.639Z,13.70
2023-03-26T15:16:07.430Z,13.80
2023-03-26T15:19:13.408Z,14.00
2023-03-26T15:22:13.879Z,14.10
2023-03-26T15:25:27.621Z,14.20
2023-03-26T15:28:43.503Z,14.20
2023-03-26T15:31:43.083Z,14.10
2023-03-26T15:35:04.114Z,14.10
2023-03-26T15:38:12.823Z,14.20
2023-03-26T15:41:03.357Z,14.10
2023-03-26T15:44:24.714Z,14.10
2023-03-26T15:47:02.863Z,14.10
2023-03-26T15:49:43.359Z,14.10
2023-03-26T15:52:25.116Z,14.10
2023-03-26T15:55:01.282Z,14.10
2023-03-26T15:57:36.203Z,13.90
2023-03-26T16:00:22.248Z,13.90
2023-03-26T16:03:09.743Z,13.80
2023-03-26T16:05:53.756Z,13.80
2023-03-26T16:08:30.719Z,13.80
2023-03-26T16:11:07.694Z,13.80
2023-03-26T16:13:39.573Z,13.80
2023-03-26T16:16:41.693Z,13.90
2023-03-26T16:19:37.278Z,13.80
2023-03-26T16:22:07.612Z,13.60
2023-03-26T16:24:37.241Z,13.60
2023-03-26T16:27:32.521Z,13.60
2023-03-26T16:30:27.389Z,13.60
2023-03-26T16:32:58.871Z,13.60
2023-03-26T16:35:41.638Z,13.50
2023-03-26T16:38:16.166Z,13.50
2023-03-26T16:40:58.319Z,13.40
2023-03-26T16:43:47.794Z,13.40
2023-03-26T16:46:30.580Z,13.30
2023-03-26T16:49:04.789Z,13.20
2023-03-26T16:51:51.771Z,13.00
2023-03-26T16:54:26.170Z,13.00
2023-03-26T16:57:00.686Z,12.90
2023-03-26T16:59:46.073Z,12.90
2023-03-26T17:02:46.464Z,12.90
2023-03-26T17:05:21.073Z,12.80
2023-03-26T17:08:01.291Z,12.80
2023-03-26T17:10:35.744Z,12.70
2023-03-26T17:13:08.796Z,12.60
2023-03-26T17:15:46.093Z,12.60
2023-03-26T17:18:28.359Z,12.50
2023-03-26T17:21:03.329Z,12.40
2023-03-26T17:23:41.366Z,12.40
2023-03-26T17:26:17.579Z,12.40
2023-03-26T17:28:59.784Z,12.40
2023-03-26T17:31:40.011Z,12.30
2023-03-26T17:34:34.572Z,12.30
2023-03-26T17:37:05.704Z,12.30
2023-03-26T17:40:37.185Z,12.20
2023-03-26T17:43:11.126Z,12.20
2023-03-26T17:45:42.108Z,12.20
2023-03-26T17:48:17.652Z,12.20
2023-03-26T17:50:53.062Z,12.10
2023-03-26T17:53:25.056Z,12.00
2023-03-26T17:55:54.813Z,12.00
2023-03-26T17:58:28.129Z,12.00
2023-03-26T18:01:06.007Z,11.90
2023-03-26T18:03:37.271Z,11.90
2023-03-26T18:06:10.465Z,11.90
2023-03-26T18:08:57.988Z,11.90
2023-03-26T18:11:53.324Z,11.90
2023-03-26T18:14:59.081Z,11.80
2023-03-26T18:17:27.204Z,11.80
2023-03-26T18:20:05.470Z,11.80
2023-03-26T18:22:35.090Z,11.80
2023-03-26T18:25:04.678Z,11.80
2023-03-26T18:27:39.125Z,11.90
2023-03-26T18:30:16.766Z,11.90
2023-03-26T18:32:52.506Z,12.00
2023-03-26T18:35:23.211Z,12.00
2023-03-26T18:37:55.883Z,12.00
2023-03-26T18:40:25.613Z,12.00
2023-03-26T18:42:56.722Z,12.00
2023-03-26T18:45:28.285Z,12.10
2023-03-26T18:47:59.291Z,12.00
2023-03-26T18:50:29.633Z,12.00
2023-03-26T18:53:01.010Z,12.00
2023-03-26T18:55:30.775Z,12.00
2023-03-26T18:57:58.915Z,12.00
2023-03-26T19:00:30.353Z,12.00
2023-03-26T19:03:05.811Z,12.00
2023-03-26T19:05:35.800Z,12.00
2023-03-26T19:08:07.132Z,12.00
2023-03-26T19:10:35.634Z,12.00
2023-03-26T19:13:05.104Z,11.90
2023-03-26T19:15:35.412Z,11.90
2023-03-26T19:18:09.799Z,12.10
2023-03-26T19:20:42.242Z,11.80
2023-03-26T19:23:16.097Z,11.80
2023-03-26T19:25:47.871Z,11.80
2023-03-26T19:28:20.213Z,11.70
2023-03-26T19:30:48.435Z,11.70
2023-03-26T19:33:18.714Z,11.70
2023-03-26T19:35:52.101Z,11.70
2023-03-26T19:38:24.599Z,11.60
2023-03-26T19:40:55.300Z,11.60
2023-03-26T19:43:24.700Z,11.60
2023-03-26T19:46:00.094Z,11.50
2023-03-26T19:48:45.842Z,11.40
2023-03-26T19:51:21.722Z,11.40
2023-03-26T19:53:54.298Z,11.40
2023-03-26T19:56:23.008Z,11.30
2023-03-26T19:58:51.743Z,11.10
2023-03-26T20:01:22.807Z,11.10
2023-03-26T20:03:52.857Z,11.00
2023-03-26T20:06:30.893Z,11.00
2023-03-26T20:09:07.633Z,10.90
2023-03-26T20:11:38.755Z,10.80
2023-03-26T20:14:13.912Z,10.70
2023-03-26T20:16:43.807Z,10.80
2023-03-26T20:19:14.091Z,10.70
2023-03-26T20:21:42.701Z,10.60
2023-03-26T20:24:15.726Z,10.50
2023-03-26T20:26:44.441Z,10.60
2023-03-26T20:29:12.920Z,10.50
2023-03-26T20:31:42.043Z,10.50
2023-03-26T20:34:17.299Z,10.40
2023-03-26T20:36:46.178Z,10.30
2023-03-26T20:39:15.640Z,10.30
2023-03-26T20:41:47.207Z,10.30
2023-03-26T20:44:17.304Z,10.40
2023-03-26T20:46:46.694Z,10.30
2023-03-26T20:49:15.832Z,10.30
2023-03-26T20:51:45.104Z,10.40
2023-03-26T20:54:19.630Z,10.50
2023-03-26T20:56:49.241Z,10.40
2023-03-26T20:59:22.388Z,10.40
2023-03-26T21:01:51.380Z,10.40
2023-03-26T21:04:20.442Z,10.30
2023-03-26T21:06:48.830Z,10.40
2023-03-26T21:09:23.607Z,10.40
2023-03-26T21:12:01.577Z,10.40
2023-03-26T21:14:33.815Z,10.30
2023-03-26T21:17:02.405Z,10.30
2023-03-26T21:19:30.924Z,10.30
2023-03-26T21:22:09.132Z,10.30
2023-03-26T21:24:50.693Z,10.30
2023-03-26T21:27:26.449Z,10.30
2023-03-26T21:29:56.203Z,10.40
2023-03-26T21:32:25.221Z,10.30
2023-03-26T21:37:25.690Z,10.10
2023-03-26T21:39:56.351Z,10.10
2023-03-26T21:42:26.890Z,10.20
2023-03-26T21:44:55.375Z,10.10
2023-03-26T21:47:23.814Z,9.90
2023-03-26T21:49:52.364Z,10.10
2023-03-26T21:52:22.574Z,10.10
2023-03-26T21:54:51.378Z,9.90
2023-03-26T21:57:40.602Z,9.90
2023-03-26T22:00:14.799Z,9.90
2023-03-26T22:02:59.976Z,9.80
2023-03-26T22:05:36.150Z,9.90
2023-03-26T22:08:06.832Z,9.90
2023-03-26T22:10:35.004Z,10.00
2023-03-26T22:13:04.325Z,9.90
2023-03-26T22:15:32.311Z,9.80
2023-03-26T22:18:04.709Z,9.80
2023-03-26T22:20:32.705Z,9.90
2023-03-26T22:23:01.841Z,9.90
2023-03-26T22:25:30.275Z,9.90
2023-03-26T22:27:58.427Z,10.00
2023-03-26T22:30:28.280Z,10.00
2023-03-26T22:32:56.761Z,10.00
2023-03-26T22:35:24.766Z,9.90
2023-03-26T22:37:52.828Z,10.00
2023-03-26T22:40:29.202Z,10.00
2023-03-26T22:42:57.153Z,9.90
2023-03-26T22:45:25.098Z,9.90
2023-03-26T22:48:03.016Z,10.00
2023-03-26T22:50:32.483Z,10.00
2023-03-26T22:53:00.573Z,9.80
2023-03-26T22:55:30.003Z,9.60
2023-03-26T22:57:58.569Z,9.70
2023-03-26T23:00:26.798Z,9.90
2023-03-26T23:03:00.219Z,10.10
2023-03-26T23:05:29.397Z,10.00
2023-03-26T23:07:58.315Z,9.90
2023-03-26T23:10:26.342Z,9.90
2023-03-26T23:12:54.386Z,10.00
2023-03-26T23:15:22.337Z,10.00
2023-03-26T23:17:54.220Z,9.90
2023-03-26T23:20:24.591Z,9.90
2023-03-26T23:22:52.681Z,9.70
2023-03-26T23:25:21.071Z,9.80
2023-03-26T23:27:50.651Z,9.70
2023-03-26T23:30:19.265Z,9.80
2023-03-26T23:32:47.465Z,10.00
2023-03-26T23:35:15.714Z,10.00
2023-03-26T23:37:45.072Z,9.80
2023-03-26T23:40:14.074Z,9.70
2023-03-26T23:42:42.460Z,9.80
2023-03-26T23:45:12.375Z,9.70
2023-03-26T23:47:42.342Z,9.60
2023-03-26T23:50:11.557Z,9.50
2023-03-26T23:52:39.833Z,9.60
2023-03-26T23:55:09.940Z,9.70
2023-03-26T23:57:38.167Z,9.70
